Time;durP1;ratioP1;P1;durP2;ratioP2;P2;SDS_P1;SDS_P2;PMS_P1;PMS_P2;Temp;Humidity;BMP_temperature;BMP_pressure;BME280_temperature;BME280_humidity;BME280_pressure;Samples;Min_cycle;Max_cycle;Signal;HPM_P1;HPM_P2
2021/10/19 00:00:11;;;;;;;17.55;13.48;;;;;;;15.57;63.72;101932.56;5013875;28;102575;-87
2021/10/19 00:02:38;;;;;;;16.83;13.88;;;;;;;15.56;63.67;101934.50;5012373;28;102791;-87
2021/10/19 00:05:06;;;;;;;15.10;12.65;;;;;;;15.57;63.73;101930.63;5012747;28;102333;-84
2021/10/19 00:07:32;;;;;;;18.20;13.95;;;;;;;15.58;63.67;101943.28;5009332;28;102230;-84
2021/10/19 00:09:59;;;;;;;17.40;13.52;;;;;;;15.58;63.80;101939.72;5009975;28;102672;-84
2021/10/19 00:12:25;;;;;;;15.55;12.50;;;;;;;15.57;64.07;101938.88;5013742;28;103076;-84
2021/10/19 00:14:52;;;;;;;15.02;12.93;;;;;;;15.57;63.81;101941.63;5008095;28;102340;-83
2021/10/19 00:17:20;;;;;;;16.25;12.93;;;;;;;15.59;64.01;101935.88;5005460;28;102181;-84
2021/10/19 00:19:46;;;;;;;13.75;12.18;;;;;;;15.58;63.89;101940.53;5005818;28;102430;-83
2021/10/19 00:22:13;;;;;;;15.27;12.73;;;;;;;15.58;64.11;101940.53;5013157;28;102900;-87
2021/10/19 00:24:39;;;;;;;16.13;13.23;;;;;;;15.57;63.90;101933.38;4992729;28;102541;-87
2021/10/19 00:27:06;;;;;;;14.57;11.93;;;;;;;15.59;63.76;101941.34;5010357;28;102257;-87
2021/10/19 00:29:33;;;;;;;15.40;12.55;;;;;;;15.58;63.77;101942.47;5003154;28;102602;-88
2021/10/19 00:32:00;;;;;;;18.67;13.27;;;;;;;15.58;63.89;101940.53;4990698;28;103861;-87
2021/10/19 00:34:29;;;;;;;15.75;13.23;;;;;;;15.58;63.99;101946.03;4980869;28;102127;-87
2021/10/19 00:36:56;;;;;;;13.10;11.70;;;;;;;15.58;63.92;101946.03;4995353;28;102239;-86
2021/10/19 00:39:23;;;;;;;13.30;11.70;;;;;;;15.58;63.99;101950.69;5003711;28;102160;-84
2021/10/19 00:41:49;;;;;;;14.32;12.60;;;;;;;15.58;64.05;101957.00;5007163;28;103808;-86
2021/10/19 00:44:16;;;;;;;15.00;13.32;;;;;;;15.58;64.04;101951.50;4997891;28;102673;-86
2021/10/19 00:46:42;;;;;;;14.07;12.00;;;;;;;15.58;63.79;101951.50;5013012;28;102110;-87
2021/10/19 00:49:09;;;;;;;16.17;12.57;;;;;;;15.57;64.19;101958.06;5001115;28;102230;-86
2021/10/19 00:51:37;;;;;;;15.65;13.02;;;;;;;15.59;63.86;101958.63;5010225;28;103122;-86
2021/10/19 00:54:04;;;;;;;14.83;12.37;;;;;;;15.57;63.94;101958.06;5011144;28;102355;-87
2021/10/19 00:56:36;;;;;;;15.05;12.43;;;;;;;15.58;63.85;101962.50;5024501;28;102630;-86
2021/10/19 00:59:03;;;;;;;14.75;12.55;;;;;;;15.57;64.22;101949.84;5014718;28;102892;-86
2021/10/19 01:01:29;;;;;;;16.35;12.05;;;;;;;15.58;64.12;101950.69;5011378;28;104205;-86
2021/10/19 01:03:56;;;;;;;14.32;12.63;;;;;;;15.57;63.76;101949.84;5015055;28;102183;-85
2021/10/19 01:06:22;;;;;;;13.77;12.32;;;;;;;15.57;64.09;101944.34;5014922;28;102295;-85
2021/10/19 01:08:50;;;;;;;14.60;12.50;;;;;;;15.58;64.01;101948.78;5014836;28;102408;-86
2021/10/19 01:11:17;;;;;;;16.50;12.73;;;;;;;15.58;63.87;101951.50;5016329;28;104288;-86
2021/10/19 01:13:44;;;;;;;14.75;11.98;;;;;;;15.58;64.09;101948.78;5008286;28;103273;-86
2021/10/19 01:16:12;;;;;;;14.63;12.38;;;;;;;15.58;63.80;101954.25;5007701;28;102760;-85
2021/10/19 01:18:39;;;;;;;13.93;11.73;;;;;;;15.57;64.12;101949.84;5010754;28;102326;-87
2021/10/19 01:21:08;;;;;;;14.90;12.70;;;;;;;15.57;63.72;101941.63;5014622;28;102838;-87
2021/10/19 01:23:35;;;;;;;13.70;12.30;;;;;;;15.57;64.12;101955.34;5016076;28;102246;-87
2021/10/19 01:26:03;;;;;;;15.93;12.68;;;;;;;15.58;64.00;101945.22;5012839;28;102034;-87
2021/10/19 01:28:35;;;;;;;13.98;11.90;;;;;;;15.58;63.91;101947.94;5012578;28;102239;-85
2021/10/19 01:31:02;;;;;;;13.73;11.93;;;;;;;15.58;63.51;101951.50;5011714;28;103880;-85
2021/10/19 01:33:29;;;;;;;14.88;12.05;;;;;;;15.57;64.17;101955.34;5018325;28;102316;-86
2021/10/19 01:35:56;;;;;;;16.05;11.93;;;;;;;15.58;63.99;101950.69;5015111;28;102333;-86
2021/10/19 01:38:26;;;;;;;15.35;12.15;;;;;;;15.58;63.89;101948.78;5022079;28;102546;-85
2021/10/19 01:40:53;;;;;;;13.63;11.48;;;;;;;15.57;63.99;101954.50;5008462;28;107662;-85
2021/10/19 01:43:23;;;;;;;13.85;12.02;;;;;;;15.57;64.13;101955.34;5018455;28;102297;-85
2021/10/19 01:45:51;;;;;;;13.77;12.07;;;;;;;15.58;63.83;101962.50;5014520;28;102048;-83
2021/10/19 01:48:18;;;;;;;14.18;11.43;;;;;;;15.58;63.98;101962.50;5011559;28;102076;-84
2021/10/19 01:50:45;;;;;;;13.88;11.40;;;;;;;15.58;64.21;101957.00;5010570;28;103556;-84
2021/10/19 01:53:12;;;;;;;14.05;11.85;;;;;;;15.58;64.30;101965.22;5014362;28;102155;-84
2021/10/19 01:55:41;;;;;;;14.90;12.20;;;;;;;15.57;63.90;101974.53;5012023;28;102158;-84
2021/10/19 01:58:08;;;;;;;13.77;11.25;;;;;;;15.57;63.85;101974.53;5012262;28;102244;-84
2021/10/19 02:00:36;;;;;;;15.27;12.18;;;;;;;15.57;64.29;101977.28;5014695;28;103959;-86
2021/10/19 02:03:04;;;;;;;14.93;11.63;;;;;;;15.57;64.12;101965.50;5011433;28;102222;-86
2021/10/19 02:05:31;;;;;;;14.80;12.07;;;;;;;15.57;63.88;101971.78;5017141;28;102620;-86
2021/10/19 02:07:58;;;;;;;13.48;11.48;;;;;;;15.58;64.01;101978.94;5012758;28;102441;-86
2021/10/19 02:10:24;;;;;;;14.38;11.88;;;;;;;15.57;63.91;101966.31;5014247;28;102442;-86
2021/10/19 02:12:52;;;;;;;12.52;11.20;;;;;;;15.57;64.03;101976.47;5017110;28;102423;-86
2021/10/19 02:15:21;;;;;;;15.18;12.13;;;;;;;15.58;64.28;101975.38;5009700;28;102120;-86
2021/10/19 02:17:48;;;;;;;13.60;10.88;;;;;;;15.58;64.09;101978.94;5009528;28;102292;-85
2021/10/19 02:20:14;;;;;;;13.73;11.05;;;;;;;15.58;64.09;101983.63;5007300;28;105011;-85
2021/10/19 02:22:43;;;;;;;;;;;;;;;15.57;64.41;101982.78;5012633;28;102348;-85
2021/10/19 02:25:10;;;;;;;14.65;11.77;;;;;;;15.58;64.28;101984.44;5010571;28;102116;-85
2021/10/19 02:27:36;;;;;;;13.77;11.43;;;;;;;15.58;63.98;101989.09;5010882;28;102647;-85
2021/10/19 02:30:07;;;;;;;12.35;10.90;;;;;;;15.57;64.10;101984.69;5008822;28;102849;-85
2021/10/19 02:32:33;;;;;;;15.63;11.27;;;;;;;15.57;64.01;101988.25;5009450;28;102173;-85
2021/10/19 02:35:00;;;;;;;14.68;11.43;;;;;;;15.57;63.97;101993.75;5014439;28;102414;-87
2021/10/19 02:37:28;;;;;;;12.75;11.38;;;;;;;15.57;64.01;101985.50;5006016;28;102340;-86
2021/10/19 02:39:54;;;;;;;14.68;11.70;;;;;;;15.57;63.95;101996.50;5012951;28;103911;-86
2021/10/19 02:42:21;;;;;;;13.65;11.30;;;;;;;15.58;63.95;101998.16;5013254;28;102137;-86
2021/10/19 02:44:47;;;;;;;14.13;11.75;;;;;;;15.58;64.25;102000.09;5013041;28;105427;-86
2021/10/19 02:47:15;;;;;;;14.88;12.05;;;;;;;15.57;63.99;102007.47;5017765;28;102356;-86
2021/10/19 02:49:42;;;;;;;13.83;11.00;;;;;;;15.57;64.46;102003.91;5012924;28;103397;-86
2021/10/19 02:52:09;;;;;;;13.27;11.15;;;;;;;15.58;64.08;102022.03;5011593;28;102635;-85
2021/10/19 02:54:37;;;;;;;14.75;11.63;;;;;;;15.56;64.12;102008.56;5014067;28;102396;-86
2021/10/19 02:57:04;;;;;;;14.27;11.90;;;;;;;15.57;64.16;102018.44;5013248;28;103677;-86
2021/10/19 02:59:31;;;;;;;12.82;11.18;;;;;;;15.57;64.00;102026.66;5013402;28;102611;-86
2021/10/19 03:01:57;;;;;;;12.23;10.77;;;;;;;15.57;64.37;102026.66;5010440;28;102394;-86
2021/10/19 03:04:25;;;;;;;13.63;11.52;;;;;;;15.56;64.25;102014.06;5004537;28;102251;-88
2021/10/19 03:06:51;;;;;;;14.20;11.43;;;;;;;15.57;64.17;102037.66;5015162;28;102160;-87
2021/10/19 03:09:18;;;;;;;13.68;11.18;;;;;;;15.56;64.44;102030.53;5012184;28;102804;-88
2021/10/19 03:11:45;;;;;;;14.25;11.93;;;;;;;15.57;64.35;102023.94;5012255;28;102332;-88
2021/10/19 03:14:12;;;;;;;12.73;11.43;;;;;;;15.58;64.00;102033.00;5011210;28;102489;-88
2021/10/19 03:16:41;;;;;;;13.52;10.77;;;;;;;15.56;64.20;102041.50;5011535;28;102201;-88
2021/10/19 03:19:08;;;;;;;14.13;11.73;;;;;;;15.56;64.40;102036.00;5011257;28;102782;-87
2021/10/19 03:21:36;;;;;;;13.45;11.35;;;;;;;15.56;63.93;102036.00;5008440;28;103464;-86
2021/10/19 03:24:03;;;;;;;13.05;10.85;;;;;;;15.57;63.99;102034.09;5014474;28;102553;-86
2021/10/19 03:26:31;;;;;;;14.48;10.77;;;;;;;15.56;64.09;102033.28;5013955;28;102932;-89
2021/10/19 03:28:57;;;;;;;13.90;10.77;;;;;;;15.56;64.38;102030.53;5015313;28;102923;-88
2021/10/19 03:31:24;;;;;;;13.38;11.48;;;;;;;15.56;64.02;102025.03;5009229;28;102560;-83
2021/10/19 03:33:50;;;;;;;12.52;11.20;;;;;;;15.57;64.35;102029.41;5011971;28;102454;-83
2021/10/19 03:36:17;;;;;;;15.35;11.20;;;;;;;15.56;64.11;102026.97;5013653;28;102295;-83
2021/10/19 03:38:45;;;;;;;12.80;10.98;;;;;;;15.57;64.04;102031.34;5006580;28;103982;-83
2021/10/19 03:41:11;;;;;;;12.32;10.60;;;;;;;15.57;64.09;102031.34;5012858;28;102044;-83
2021/10/19 03:43:37;;;;;;;12.60;10.82;;;;;;;15.57;64.03;102039.56;5012988;28;102742;-84
2021/10/19 03:46:04;;;;;;;13.25;10.35;;;;;;;15.56;64.36;102038.75;5004470;28;102354;-84
2021/10/19 03:48:31;;;;;;;13.18;11.07;;;;;;;15.56;64.42;102041.50;5012616;28;103786;-84
2021/10/19 03:50:57;;;;;;;13.07;10.90;;;;;;;15.55;64.46;102039.84;5012821;28;102461;-88
2021/10/19 03:53:24;;;;;;;13.98;11.63;;;;;;;15.56;64.38;102047.00;5011842;28;102107;-84
2021/10/19 03:55:52;;;;;;;12.60;11.00;;;;;;;15.56;64.34;102040.69;5009919;28;102292;-85
2021/10/19 03:58:19;;;;;;;13.93;10.95;;;;;;;15.56;64.70;102041.50;5003144;28;103891;-84
2021/10/19 04:00:45;;;;;;;12.90;10.93;;;;;;;15.56;64.34;102044.25;5009461;28;102287;-85
2021/10/19 04:03:12;;;;;;;11.80;10.60;;;;;;;15.56;64.11;102047.00;5011457;28;102713;-84
2021/10/19 04:05:38;;;;;;;12.35;10.80;;;;;;;15.55;64.33;102050.84;5012607;28;102639;-85
2021/10/19 04:08:05;;;;;;;13.40;11.18;;;;;;;15.56;64.31;102043.44;5012556;28;103025;-86
2021/10/19 04:10:31;;;;;;;12.25;10.40;;;;;;;15.56;64.22;102051.66;5008637;28;102214;-87
2021/10/19 04:12:59;;;;;;;12.27;10.95;;;;;;;15.55;64.45;102050.84;5012582;28;103269;-87
2021/10/19 04:15:26;;;;;;;13.55;11.20;;;;;;;15.56;64.38;102047.00;5010409;28;102315;-87
2021/10/19 04:17:53;;;;;;;12.35;10.43;;;;;;;15.55;64.31;102045.34;5011267;28;104699;-86
2021/10/19 04:20:20;;;;;;;13.10;10.65;;;;;;;15.55;64.56;102045.34;4991284;28;102329;-86
2021/10/19 04:22:46;;;;;;;12.30;10.15;;;;;;;15.55;64.44;102037.13;5010685;28;102160;-87
2021/10/19 04:25:13;;;;;;;12.65;10.60;;;;;;;15.56;64.17;102044.25;5009881;28;102792;-86
2021/10/19 04:27:39;;;;;;;14.00;10.45;;;;;;;15.55;64.06;102037.13;4995117;28;103893;-86
2021/10/19 04:30:08;;;;;;;12.02;10.40;;;;;;;15.55;64.26;102044.53;5012612;28;103758;-85
2021/10/19 04:32:35;;;;;;;13.32;10.90;;;;;;;15.56;64.49;102047.00;4998861;28;102398;-86
2021/10/19 04:35:02;;;;;;;13.02;10.85;;;;;;;15.55;64.26;102050.84;5015480;28;102518;-86
2021/10/19 04:37:28;;;;;;;13.52;11.00;;;;;;;15.55;64.56;102050.00;5009355;28;103718;-86
2021/10/19 04:39:55;;;;;;;12.75;10.85;;;;;;;15.55;64.49;102056.31;5017445;28;102218;-84
2021/10/19 04:42:21;;;;;;;12.85;10.95;;;;;;;15.56;64.56;102057.16;5015833;28;102211;-86
2021/10/19 04:44:48;;;;;;;11.93;10.32;;;;;;;15.55;64.35;102058.25;5017982;28;102284;-86
2021/10/19 04:47:16;;;;;;;13.35;11.38;;;;;;;15.55;64.14;102053.56;5017655;28;104686;-89
2021/10/19 04:49:43;;;;;;;13.17;10.80;;;;;;;15.55;64.21;102058.25;5014169;28;102185;-88
2021/10/19 04:52:10;;;;;;;14.55;10.93;;;;;;;15.56;64.26;102062.63;5007134;28;102291;-88
2021/10/19 04:54:36;;;;;;;12.60;11.05;;;;;;;15.55;64.13;102059.06;5007076;28;102243;-88
2021/10/19 04:57:03;;;;;;;12.65;10.88;;;;;;;15.56;64.26;102062.63;5014958;28;103875;-87
2021/10/19 04:59:29;;;;;;;13.00;11.30;;;;;;;15.55;64.56;102061.81;5007238;28;102383;-86
2021/10/19 05:01:56;;;;;;;27.20;15.27;;;;;;;15.54;63.79;102079.38;5009407;28;102141;-86
2021/10/19 05:04:24;;;;;;;16.25;11.95;;;;;;;15.52;64.49;102095.28;5012779;27;102395;-85
2021/10/19 05:06:50;;;;;;;17.13;12.40;;;;;;;15.53;64.62;102102.41;5014910;28;102922;-85
2021/10/19 05:09:18;;;;;;;13.35;11.40;;;;;;;15.54;64.38;102108.72;5013142;28;103731;-86
2021/10/19 05:11:45;;;;;;;18.60;12.93;;;;;;;15.53;64.26;102110.63;5009995;28;102200;-86
2021/10/19 05:14:11;;;;;;;15.95;12.68;;;;;;;15.53;64.31;102105.16;5012475;28;102812;-87
2021/10/19 05:16:38;;;;;;;16.35;12.88;;;;;;;15.53;64.41;102112.56;5011001;28;103738;-87
2021/10/19 05:19:04;;;;;;;16.10;12.90;;;;;;;15.53;64.28;102104.31;5008082;28;102253;-87
2021/10/19 05:21:32;;;;;;;17.90;13.52;;;;;;;15.52;64.44;102106.25;5015130;28;102387;-87
2021/10/19 05:23:59;;;;;;;19.67;14.23;;;;;;;15.53;64.41;102113.38;5014952;28;102257;-86
2021/10/19 05:26:26;;;;;;;15.88;13.20;;;;;;;15.53;64.28;102123.53;5000172;28;102987;-87
2021/10/19 05:28:52;;;;;;;17.13;12.73;;;;;;;15.52;64.72;102116.41;5007710;28;102774;-87
2021/10/19 05:31:19;;;;;;;15.80;12.18;;;;;;;15.52;64.37;102128.19;5015458;28;102109;-87
2021/10/19 05:33:45;;;;;;;17.02;13.02;;;;;;;15.52;64.53;102125.47;4993527;28;102717;-87
2021/10/19 05:36:12;;;;;;;19.08;13.23;;;;;;;15.52;64.50;102128.19;4990793;28;103254;-87
2021/10/19 05:38:39;;;;;;;16.23;13.27;;;;;;;15.52;64.60;102136.44;4995747;28;102490;-87
2021/10/19 05:41:06;;;;;;;16.65;13.30;;;;;;;15.52;64.70;102141.09;4988986;28;103567;-86
2021/10/19 05:43:32;;;;;;;16.48;12.73;;;;;;;15.52;64.37;102139.19;4991494;28;103792;-85
2021/10/19 05:45:58;;;;;;;15.30;12.32;;;;;;;15.53;64.51;102151.78;4988701;28;102804;-86
2021/10/19 05:48:25;;;;;;;18.15;12.95;;;;;;;15.51;64.65;102154.00;4998730;28;102271;-85
2021/10/19 05:50:52;;;;;;;18.73;13.45;;;;;;;15.52;64.23;102160.31;4980869;28;102894;-86
2021/10/19 05:53:18;;;;;;;15.43;12.00;;;;;;;15.51;64.52;102154.00;4982673;28;102319;-92
2021/10/19 05:55:46;;;;;;;17.30;13.10;;;;;;;15.51;64.53;102164.97;4984339;28;102762;-87
2021/10/19 05:58:13;;;;;;;14.20;12.05;;;;;;;15.52;64.52;102163.88;4992634;28;102260;-86
2021/10/19 06:00:39;;;;;;;16.35;12.50;;;;;;;15.51;64.34;102164.97;4988108;28;102182;-86
2021/10/19 06:03:06;;;;;;;14.80;12.27;;;;;;;15.53;64.54;102161.94;5017875;28;103436;-87
2021/10/19 06:05:34;;;;;;;15.25;12.00;;;;;;;15.53;64.55;102165.50;5010818;28;102865;-82
2021/10/19 06:08:01;;;;;;;16.57;12.17;;;;;;;15.52;64.72;102161.13;5014752;28;102490;-81
2021/10/19 06:10:28;;;;;;;15.50;12.23;;;;;;;15.53;64.81;102167.44;5010619;28;102164;-81
2021/10/19 06:12:56;;;;;;;16.27;12.68;;;;;;;15.52;64.66;102166.63;5008464;28;103573;-81
2021/10/19 06:15:25;;;;;;;13.07;11.35;;;;;;;15.53;64.59;102176.50;5013239;28;103772;-82
2021/10/19 06:17:53;;;;;;;;;;;;;;;15.53;64.77;102168.25;5012880;28;102898;-82
2021/10/19 06:20:21;;;;;;;14.68;11.90;;;;;;;15.53;64.35;102179.22;5024619;27;102227;-81
2021/10/19 06:22:47;;;;;;;19.85;12.65;;;;;;;15.53;64.39;102178.41;5010003;28;102686;-81
2021/10/19 06:25:14;;;;;;;16.83;11.98;;;;;;;15.53;64.61;102173.75;5016335;28;102771;-87
2021/10/19 06:27:40;;;;;;;15.77;11.55;;;;;;;15.53;64.50;102184.72;5018070;28;102089;-87
2021/10/19 06:30:09;;;;;;;13.73;12.15;;;;;;;15.53;64.26;102190.22;5015384;28;102441;-87
2021/10/19 06:32:37;;;;;;;15.48;12.38;;;;;;;15.53;64.33;102201.19;5019816;28;102268;-87
2021/10/19 06:35:05;;;;;;;14.93;12.67;;;;;;;15.54;64.57;102185.53;5018046;28;103283;-87
2021/10/19 06:37:31;;;;;;;16.40;12.98;;;;;;;15.53;64.26;102190.22;5014596;28;104225;-87
2021/10/19 06:39:58;;;;;;;17.02;13.75;;;;;;;15.53;64.41;102190.22;5013609;28;102238;-86
2021/10/19 06:42:25;;;;;;;17.75;13.15;;;;;;;15.54;64.39;102186.38;5022630;28;102133;-87
2021/10/19 06:44:51;;;;;;;15.95;12.82;;;;;;;15.54;64.24;102191.03;5017331;28;102724;-87
2021/10/19 06:47:19;;;;;;;17.50;13.52;;;;;;;15.54;64.36;102180.91;5000683;28;102440;-86
2021/10/19 06:49:45;;;;;;;16.33;12.10;;;;;;;15.55;64.62;102184.47;5011132;28;102045;-87
2021/10/19 06:52:12;;;;;;;15.90;11.93;;;;;;;15.55;64.69;102188.03;5008062;28;102641;-87
2021/10/19 06:54:39;;;;;;;14.50;12.32;;;;;;;15.55;64.70;102182.53;5012637;28;102423;-87
2021/10/19 06:57:06;;;;;;;17.08;12.40;;;;;;;15.55;64.60;102185.28;5007932;28;102079;-87
2021/10/19 06:59:32;;;;;;;14.80;12.45;;;;;;;15.55;64.32;102177.06;5012375;28;102224;-82
2021/10/19 07:01:59;;;;;;;15.93;12.45;;;;;;;15.56;64.57;102178.69;5010249;28;102582;-81
2021/10/19 07:04:26;;;;;;;15.85;12.85;;;;;;;15.57;64.65;102179.50;5003820;28;102742;-81
2021/10/19 07:06:53;;;;;;;15.00;11.85;;;;;;;15.56;64.56;102181.44;5007907;28;102634;-81
2021/10/19 07:09:20;;;;;;;13.38;11.60;;;;;;;15.57;64.56;102174.84;5009704;28;102215;-82
2021/10/19 07:11:46;;;;;;;15.40;11.90;;;;;;;15.56;64.65;102178.69;5011677;28;102093;-81
2021/10/19 07:14:13;;;;;;;15.77;12.35;;;;;;;15.57;64.70;102174.84;5007787;28;103320;-81
2021/10/19 07:16:40;;;;;;;16.50;12.70;;;;;;;15.58;64.53;102187.50;5013277;28;102309;-81
2021/10/19 07:19:09;;;;;;;15.95;11.85;;;;;;;15.58;64.30;102183.94;5014238;28;102368;-81
2021/10/19 07:21:37;;;;;;;15.95;12.82;;;;;;;15.58;64.35;102190.25;5003773;28;102568;-81
2021/10/19 07:24:05;;;;;;;13.98;11.25;;;;;;;15.58;64.55;102195.72;5007740;28;104952;-81
2021/10/19 07:26:33;;;;;;;14.65;12.35;;;;;;;15.59;64.54;102191.06;5007098;28;102138;-81
2021/10/19 07:28:59;;;;;;;14.10;11.48;;;;;;;15.59;64.41;102189.13;5010670;28;102035;-81
2021/10/19 07:31:25;;;;;;;14.35;12.38;;;;;;;15.60;64.97;102196.25;5004259;28;102395;-81
2021/10/19 07:33:52;;;;;;;14.23;11.90;;;;;;;15.59;64.31;102197.38;5008124;28;104058;-81
2021/10/19 07:36:19;;;;;;;14.82;12.00;;;;;;;15.61;64.11;102202.56;4987274;28;102145;-81
2021/10/19 07:38:49;;;;;;;13.20;11.52;;;;;;;15.59;64.39;102189.13;4985399;28;102519;-81
2021/10/19 07:41:16;;;;;;;15.93;12.05;;;;;;;15.61;64.56;102194.34;4988454;28;102425;-81
2021/10/19 07:43:42;;;;;;;13.80;11.63;;;;;;;15.61;64.61;102189.72;5010277;28;103727;-81
2021/10/19 07:46:08;;;;;;;14.00;11.88;;;;;;;15.62;64.46;102182.28;5010849;28;103367;-81
2021/10/19 07:48:36;;;;;;;16.38;12.73;;;;;;;15.62;64.62;102191.34;5004999;28;102394;-80
2021/10/19 07:51:03;;;;;;;15.05;11.73;;;;;;;15.65;64.64;102191.88;5007132;28;102234;-83
2021/10/19 07:53:30;;;;;;;14.55;11.80;;;;;;;15.63;64.42;102193.00;5010646;28;102722;-83
2021/10/19 07:55:58;;;;;;;13.48;12.05;;;;;;;15.65;64.33;102191.88;5010563;28;102261;-84
2021/10/19 07:58:26;;;;;;;14.98;11.75;;;;;;;15.64;64.37;102202.03;5010078;28;102236;-83
2021/10/19 08:00:53;;;;;;;13.35;11.07;;;;;;;15.65;64.55;102194.63;5005589;28;102847;-83
2021/10/19 08:03:19;;;;;;;13.48;11.73;;;;;;;15.65;64.23;102197.38;5000539;28;103932;-83
2021/10/19 08:05:46;;;;;;;14.02;12.02;;;;;;;15.65;64.71;102205.59;5009070;28;102269;-82
2021/10/19 08:08:14;;;;;;;13.77;11.70;;;;;;;15.66;64.61;102201.81;5014433;28;102564;-82
2021/10/19 08:10:42;;;;;;;14.83;11.83;;;;;;;15.67;64.32;102208.94;5013966;28;102310;-82
2021/10/19 08:13:11;;;;;;;12.13;10.83;;;;;;;15.67;64.50;102200.72;5005462;28;104755;-82
2021/10/19 08:15:38;;;;;;;12.77;11.30;;;;;;;15.66;64.36;102199.06;5017041;28;102272;-82
2021/10/19 08:18:06;;;;;;;13.73;11.60;;;;;;;15.67;64.70;102200.72;5010481;28;102692;-82
2021/10/19 08:20:34;;;;;;;12.82;11.27;;;;;;;15.67;64.42;102211.69;5014634;28;102381;-88
2021/10/19 08:23:00;;;;;;;14.30;11.60;;;;;;;15.67;64.53;102211.69;5012091;28;102350;-88
2021/10/19 08:25:27;;;;;;;14.68;11.93;;;;;;;15.67;64.52;102201.53;5010235;28;102343;-88
2021/10/19 08:27:55;;;;;;;13.20;10.73;;;;;;;15.68;64.41;102213.34;5007007;28;102484;-88
2021/10/19 08:30:23;;;;;;;14.85;12.23;;;;;;;15.67;64.44;102207.03;5013817;28;102525;-88
2021/10/19 08:32:51;;;;;;;14.52;11.75;;;;;;;15.68;64.33;102207.84;5013716;28;104067;-88
2021/10/19 08:35:19;;;;;;;15.07;11.75;;;;;;;15.68;64.25;102208.66;5013846;28;103692;-87
2021/10/19 08:37:46;;;;;;;12.07;10.52;;;;;;;15.69;64.43;102215.00;5013605;28;103092;-88
2021/10/19 08:40:14;;;;;;;12.90;11.50;;;;;;;15.67;64.65;102212.53;5011620;27;102141;-82
2021/10/19 08:42:44;;;;;;;12.15;10.57;;;;;;;15.68;64.50;102210.59;5011510;28;104106;-82
2021/10/19 08:45:11;;;;;;;15.65;12.45;;;;;;;15.68;64.67;102213.34;5008468;28;103814;-82
2021/10/19 08:47:41;;;;;;;13.77;11.97;;;;;;;15.68;64.44;102205.09;5029951;28;102241;-81
2021/10/19 08:50:10;;;;;;;13.73;11.73;;;;;;;15.68;64.31;102218.81;5014591;27;102359;-82
2021/10/19 08:52:38;;;;;;;14.75;11.88;;;;;;;15.69;64.48;102204.84;5007576;28;104178;-82
2021/10/19 08:55:06;;;;;;;14.65;11.43;;;;;;;15.69;64.63;102215.00;5010408;27;102376;-82
2021/10/19 08:57:33;;;;;;;14.33;12.30;;;;;;;15.68;64.47;102202.34;5012194;28;102456;-88
2021/10/19 08:59:59;;;;;;;13.43;12.00;;;;;;;15.69;64.47;102215.00;5010350;28;103019;-88
2021/10/19 09:02:37;;;;;;;16.05;11.35;;;;;;;15.69;64.26;102201.28;5009427;28;102478;-88
2021/10/19 09:05:12;;;;;;;14.15;11.02;;;;;;;15.69;64.38;102198.53;5013859;28;102070;-89
2021/10/19 09:07:51;;;;;;;14.23;11.55;;;;;;;15.68;64.59;102196.88;5013235;28;102376;-89
2021/10/19 09:10:17;;;;;;;11.93;10.55;;;;;;;15.69;64.63;102195.81;5017403;28;102310;-88
2021/10/19 09:12:51;;;;;;;13.55;10.98;;;;;;;15.69;64.25;102182.91;5010279;28;107701;-87
2021/10/19 09:15:21;;;;;;;13.55;11.68;;;;;;;15.70;64.54;102191.94;5008973;28;102165;-82
2021/10/19 09:17:48;;;;;;;14.75;11.13;;;;;;;15.69;64.43;102187.56;5012046;28;103901;-89
2021/10/19 09:20:18;;;;;;;13.77;11.88;;;;;;;15.69;64.26;102195.81;5013812;28;102435;-89
2021/10/19 09:22:56;;;;;;;14.57;11.82;;;;;;;15.70;64.50;102191.94;5004345;28;102453;-89
2021/10/19 09:25:24;;;;;;;13.25;10.90;;;;;;;15.69;64.73;102193.88;5008302;28;105410;-89
2021/10/19 09:27:52;;;;;;;14.80;12.17;;;;;;;15.69;64.59;102202.09;5006922;28;102349;-89
2021/10/19 09:30:30;;;;;;;13.57;11.25;;;;;;;15.69;64.30;102198.53;5018436;28;102655;-89
2021/10/19 09:32:56;;;;;;;13.48;11.23;;;;;;;15.69;64.36;102187.56;5013269;28;102716;-89
2021/10/19 09:35:24;;;;;;;12.43;11.00;;;;;;;15.69;64.70;102188.38;5015129;28;102604;-89
2021/10/19 09:37:57;;;;;;;13.35;11.05;;;;;;;15.69;64.53;102179.34;5010219;28;102314;-89
2021/10/19 09:40:30;;;;;;;13.55;11.40;;;;;;;15.69;64.36;102179.34;5018084;28;102276;-88
2021/10/19 09:43:01;;;;;;;12.23;10.93;;;;;;;15.70;64.34;102183.72;5008388;28;104098;-89
2021/10/19 09:45:28;;;;;;;13.52;11.93;;;;;;;15.69;64.59;102185.66;5007432;28;102182;-89
2021/10/19 09:47:57;;;;;;;17.55;14.27;;;;;;;15.71;64.58;102190.84;5021218;28;102266;-89
2021/10/19 09:50:27;;;;;;;15.43;13.00;;;;;;;15.70;64.42;102186.47;5025951;28;102137;-89
2021/10/19 09:52:54;;;;;;;13.93;11.98;;;;;;;15.69;64.69;102182.06;5003021;28;103879;-81
2021/10/19 09:55:22;;;;;;;14.32;12.27;;;;;;;15.69;64.38;102182.06;4997398;28;102445;-88
2021/10/19 09:57:51;;;;;;;13.93;12.10;;;;;;;15.69;64.78;102169.19;4995701;28;102194;-90
2021/10/19 10:00:19;;;;;;;15.65;12.75;;;;;;;15.69;64.15;102176.59;4997048;28;102268;-89
2021/10/19 10:02:46;;;;;;;14.82;13.05;;;;;;;15.69;64.73;102176.59;4994629;28;102731;-89
2021/10/19 10:05:13;;;;;;;16.95;13.32;;;;;;;15.69;64.57;102171.09;4983697;28;102349;-89
2021/10/19 10:07:44;;;;;;;16.88;14.05;;;;;;;15.69;64.62;102174.66;4990244;28;102373;-88
2021/10/19 10:10:13;;;;;;;17.73;14.75;;;;;;;15.69;64.71;102171.09;4984344;28;102579;-88
2021/10/19 10:12:44;;;;;;;18.58;14.70;;;;;;;15.69;64.31;102179.34;4986388;28;102788;-82
2021/10/19 10:15:22;;;;;;;15.73;13.75;;;;;;;15.69;64.40;102176.59;4990880;28;102143;-82
2021/10/19 10:17:52;;;;;;;17.45;14.20;;;;;;;15.69;64.24;102171.09;4982169;28;102334;-81
2021/10/19 10:20:27;;;;;;;16.58;13.85;;;;;;;15.69;64.36;102165.59;5004058;28;103712;-81
2021/10/19 10:22:55;;;;;;;17.40;14.18;;;;;;;15.69;64.40;102165.59;4997947;28;107796;-82
2021/10/19 10:25:24;;;;;;;15.77;13.73;;;;;;;15.70;64.28;102178.22;5004552;28;102400;-82
2021/10/19 10:27:51;;;;;;;14.98;12.63;;;;;;;15.69;64.58;102173.84;4997461;27;102243;-81
2021/10/19 10:30:19;;;;;;;18.20;13.48;;;;;;;15.69;64.43;102165.59;5011444;28;102264;-90
2021/10/19 10:32:46;;;;;;;16.13;13.20;;;;;;;15.68;64.16;102166.69;5010503;28;102700;-81
2021/10/19 10:35:15;;;;;;;17.30;13.93;;;;;;;15.69;64.24;102171.09;5015660;28;102469;-82
2021/10/19 10:37:47;;;;;;;17.45;14.52;;;;;;;15.69;64.40;102168.34;5013445;28;102299;-82
2021/10/19 10:40:26;;;;;;;17.02;13.95;;;;;;;15.69;64.49;102171.09;5013805;28;102342;-81
2021/10/19 10:42:53;;;;;;;17.00;13.55;;;;;;;15.70;64.23;102175.47;5003256;28;103756;-81
2021/10/19 10:45:22;;;;;;;15.57;13.13;;;;;;;15.69;64.71;102177.41;5012885;28;102051;-81
2021/10/19 10:47:55;;;;;;;16.17;12.70;;;;;;;15.69;64.36;102176.59;5009054;28;103082;-81
2021/10/19 10:50:22;;;;;;;16.58;13.20;;;;;;;15.69;64.49;102171.09;5005652;28;102631;-89
2021/10/19 10:52:56;;;;;;;17.10;13.68;;;;;;;15.69;64.46;102176.59;5014361;28;103927;-81
2021/10/19 10:55:24;;;;;;;17.50;13.68;;;;;;;15.69;64.36;102173.84;4999155;28;102340;-81
2021/10/19 10:57:50;;;;;;;16.52;12.95;;;;;;;15.69;64.45;102182.06;5014630;28;102436;-81
2021/10/19 11:00:23;;;;;;;16.60;12.27;;;;;;;15.69;64.56;102179.34;5008815;28;102400;-81
2021/10/19 11:02:49;;;;;;;16.23;13.25;;;;;;;15.68;64.24;102180.41;5003180;27;105166;-81